This is the latest recevied weather packets stored in our database for station/object PY2KO-13. If no packets are shown the sender has not sent any weather packets the latest 10 day(s).
| Time | Temp. | Humidity | Pressure | Rain* | Wind** | Luminosity | Snow |
|---|---|---|---|---|---|---|---|
| 1777562107 | 27.78° C | 56% | 1018 hPa | - | - | - | - |
| 1777560305 | 27.78° C | 54% | 1018.4 hPa | - | - | - | - |
| 1777558505 | 28.89° C | 50% | 1018.7 hPa | - | - | - | - |
| 1777556710 | 28.89° C | 51% | 1019.3 hPa | - | - | - | - |
| 1777554905 | 28.33° C | 52% | 1019.4 hPa | - | - | - | - |
| 1777553105 | 24.44° C | 65% | 1019.7 hPa | - | - | - | - |
| 1777551305 | 24.44° C | 66% | 1019.6 hPa | - | - | - | - |
| 1777549505 | 23.89° C | 69% | 1019.4 hPa | - | - | - | - |
| 1777547704 | 22.78° C | 74% | 1018.7 hPa | - | - | - | - |
| 1777545905 | 22.78° C | 75% | 1018.7 hPa | - | - | - | - |
| 1777544105 | 22.22° C | 78% | 1018 hPa | - | - | - | - |
| 1777542305 | 21.11° C | 81% | 1017.5 hPa | - | - | - | - |
| 1777540505 | 21.11° C | 85% | 1017.8 hPa | - | - | - | - |
| 1777538705 | 21.11° C | 84% | 1017.2 hPa | - | - | - | - |
| 1777536905 | 20° C | 89% | 1016.7 hPa | - | - | - | - |
| 1777535105 | 21.11° C | 82% | 1017.6 hPa | - | - | - | - |
| 1777533304 | 20.56° C | 83% | 1017.8 hPa | - | - | - | - |
| 1777531504 | 20.56° C | 84% | 1018.7 hPa | - | - | - | - |
| 1777529705 | 20° C | 86% | 1019.9 hPa | - | - | - | - |
| 1777527905 | 19.44° C | 91% | 1020.1 hPa | - | - | - | - |
| 1777526105 | 19.44° C | 89% | 1020 hPa | - | - | - | - |
| 1777524305 | 20° C | 89% | 1019.6 hPa | - | - | - | - |
| 1777522504 | 20.56° C | 84% | 1019.4 hPa | - | - | - | - |
| 1777520706 | 21.11° C | 81% | 1020 hPa | - | - | - | - |
| 1777518905 | 20.56° C | 87% | 1019.3 hPa | - | - | - | - |
* Rain since midnight (hover to see other rain measurements)
** Current wind speed in m/s (hover to see current wind gust speed)